createdAt,value
2022-11-16T00:00:00.303Z,48.00
2022-11-16T00:05:25.513Z,54.60
2022-11-16T00:07:56.622Z,54.70
2022-11-16T00:10:24.967Z,52.20
2022-11-16T00:12:53.170Z,50.10
2022-11-16T00:15:21.494Z,52.70
2022-11-16T00:17:49.740Z,49.60
2022-11-16T00:20:17.896Z,50.20
2022-11-16T00:22:46.118Z,49.40
2022-11-16T00:25:14.496Z,52.50
2022-11-16T00:27:42.676Z,50.10
2022-11-16T00:30:11.250Z,46.90
2022-11-16T00:32:39.516Z,47.30
2022-11-16T00:35:08.360Z,49.60
2022-11-16T00:37:36.574Z,47.50
2022-11-16T00:40:05.373Z,47.40
2022-11-16T00:42:33.780Z,48.20
2022-11-16T00:45:01.927Z,51.90
2022-11-16T00:47:30.153Z,46.30
2022-11-16T00:49:58.414Z,44.30
2022-11-16T00:52:26.629Z,45.80
2022-11-16T00:54:56.090Z,49.80
2022-11-16T00:57:24.499Z,46.70
2022-11-16T00:59:52.709Z,46.20
2022-11-16T01:02:21.653Z,49.70
2022-11-16T01:04:49.847Z,51.70
2022-11-16T01:07:18.037Z,45.40
2022-11-16T01:09:46.287Z,47.60
2022-11-16T01:12:14.504Z,47.70
2022-11-16T01:14:44.838Z,48.50
2022-11-16T01:17:14.811Z,48.40
2022-11-16T01:19:43.187Z,53.60
2022-11-16T01:22:11.436Z,52.10
2022-11-16T01:24:39.791Z,47.70
2022-11-16T01:27:08.060Z,48.70
2022-11-16T01:29:38.787Z,48.60
2022-11-16T01:32:07.076Z,50.20
2022-11-16T01:34:36.135Z,49.80
2022-11-16T01:37:11.207Z,47.70
2022-11-16T01:39:41.496Z,46.90
2022-11-16T01:42:25.813Z,43.30
2022-11-16T01:45:18.920Z,44.70
2022-11-16T01:47:48.871Z,44.10
2022-11-16T01:50:21.221Z,43.00
2022-11-16T01:53:00.094Z,43.10
2022-11-16T01:55:35.517Z,42.80
2022-11-16T01:58:23.827Z,43.80
2022-11-16T02:01:00.222Z,42.10
2022-11-16T02:03:44.815Z,44.70
2022-11-16T02:06:28.362Z,40.90
2022-11-16T02:09:48.191Z,42.00
2022-11-16T02:12:39.468Z,41.30
2022-11-16T02:15:25.450Z,42.20
2022-11-16T02:18:37.365Z,42.00
2022-11-16T02:21:16.787Z,38.90
2022-11-16T02:23:51.239Z,42.30
2022-11-16T02:26:31.734Z,42.20
2022-11-16T02:29:18.296Z,41.90
2022-11-16T02:31:52.911Z,41.40
2022-11-16T02:34:24.065Z,42.00
2022-11-16T02:36:55.265Z,42.10
2022-11-16T02:39:27.429Z,45.00
2022-11-16T02:41:59.009Z,44.40
2022-11-16T02:44:37.236Z,42.70
2022-11-16T02:47:09.522Z,43.20
2022-11-16T02:49:42.562Z,45.10
2022-11-16T02:52:12.453Z,46.30
2022-11-16T02:54:40.824Z,47.60
2022-11-16T02:57:08.906Z,45.80
2022-11-16T02:59:42.166Z,45.10
2022-11-16T03:02:49.786Z,45.10
2022-11-16T03:05:48.203Z,44.20
2022-11-16T03:08:25.060Z,46.80
2022-11-16T03:11:17.084Z,44.80
2022-11-16T03:13:47.384Z,43.70
2022-11-16T03:16:36.371Z,44.90
2022-11-16T03:19:10.459Z,41.70
2022-11-16T03:21:59.551Z,43.50
2022-11-16T03:24:28.137Z,43.30
2022-11-16T03:27:12.556Z,44.50
2022-11-16T03:29:53.850Z,43.00
2022-11-16T03:32:29.019Z,46.30
2022-11-16T03:35:06.715Z,45.10
2022-11-16T03:37:36.971Z,45.80
2022-11-16T03:40:07.607Z,45.90
2022-11-16T03:42:36.610Z,44.40
2022-11-16T03:45:05.578Z,46.20
2022-11-16T03:47:34.767Z,45.70
2022-11-16T03:50:05.200Z,44.60
2022-11-16T03:52:35.088Z,46.80
2022-11-16T03:55:05.114Z,46.30
2022-11-16T03:57:35.290Z,48.90
2022-11-16T04:00:06.358Z,47.90
2022-11-16T04:02:41.498Z,51.00
2022-11-16T04:05:29.269Z,48.40
2022-11-16T04:08:16.072Z,47.80
2022-11-16T04:11:03.283Z,46.80
2022-11-16T04:13:53.088Z,47.50
2022-11-16T04:16:39.902Z,47.60
2022-11-16T04:19:28.162Z,47.60
2022-11-16T04:22:19.243Z,49.60
2022-11-16T04:24:54.805Z,48.30
2022-11-16T04:27:50.035Z,47.90
2022-11-16T04:30:19.790Z,46.80
2022-11-16T04:33:07.263Z,47.10
2022-11-16T04:35:54.083Z,47.80
2022-11-16T04:38:22.243Z,46.40
2022-11-16T04:40:50.478Z,46.30
2022-11-16T04:43:18.702Z,48.00
2022-11-16T04:46:05.860Z,48.30
2022-11-16T04:48:38.051Z,45.70
2022-11-16T04:51:06.379Z,46.30
2022-11-16T04:53:34.957Z,46.50
2022-11-16T04:56:09.088Z,48.50
2022-11-16T04:58:37.235Z,45.80
2022-11-16T05:01:05.368Z,47.00
2022-11-16T05:03:34.437Z,48.80
2022-11-16T05:06:02.635Z,50.90
2022-11-16T05:08:31.368Z,48.00
2022-11-16T05:11:00.181Z,47.80
2022-11-16T05:13:28.658Z,48.20
2022-11-16T05:15:56.842Z,46.80
2022-11-16T05:18:25.046Z,46.70
2022-11-16T05:21:02.462Z,47.10
2022-11-16T05:23:53.058Z,48.70
2022-11-16T05:26:22.406Z,47.80
2022-11-16T05:28:50.911Z,46.30
2022-11-16T05:31:19.331Z,51.10
2022-11-16T05:33:48.650Z,52.40
2022-11-16T05:36:17.180Z,52.70
2022-11-16T05:38:45.509Z,56.20
2022-11-16T05:41:13.685Z,52.10
2022-11-16T05:43:42.060Z,53.20
2022-11-16T05:46:15.159Z,50.90
2022-11-16T05:48:43.333Z,50.40
2022-11-16T05:51:11.557Z,50.40
2022-11-16T05:53:39.906Z,50.20
2022-11-16T05:56:08.687Z,50.70
2022-11-16T05:58:39.036Z,51.10
2022-11-16T06:01:07.408Z,51.90
2022-11-16T06:03:36.467Z,49.00
2022-11-16T06:06:05.448Z,49.10
2022-11-16T06:08:33.993Z,48.80
2022-11-16T06:11:06.303Z,51.20
2022-11-16T06:13:36.110Z,51.90
2022-11-16T06:16:05.533Z,53.10
2022-11-16T06:18:38.808Z,54.40
2022-11-16T06:21:08.873Z,55.50
2022-11-16T06:23:37.353Z,57.70
2022-11-16T06:26:06.890Z,61.90
2022-11-16T06:28:36.630Z,61.10
2022-11-16T06:31:05.244Z,61.90
2022-11-16T06:33:36.448Z,63.40
2022-11-16T06:36:06.992Z,60.90
2022-11-16T06:38:35.263Z,62.20
2022-11-16T06:41:03.847Z,62.20
2022-11-16T06:43:33.094Z,62.20
2022-11-16T06:46:01.304Z,58.20
2022-11-16T06:48:30.513Z,58.20
2022-11-16T06:50:59.855Z,57.50
2022-11-16T06:53:29.593Z,58.10
2022-11-16T06:56:06.691Z,57.50
2022-11-16T06:58:41.684Z,54.30
2022-11-16T07:01:12.350Z,54.40
2022-11-16T07:03:41.872Z,54.80
2022-11-16T07:06:12.231Z,52.10
2022-11-16T07:08:41.603Z,52.60
2022-11-16T07:11:10.673Z,52.30
2022-11-16T07:13:39.155Z,51.60
2022-11-16T07:16:10.151Z,51.20
2022-11-16T07:18:41.394Z,49.90
2022-11-16T07:21:13.147Z,48.40
2022-11-16T07:23:42.065Z,49.50
2022-11-16T07:26:11.859Z,47.10
2022-11-16T07:28:48.179Z,49.30
2022-11-16T07:31:18.962Z,45.70
2022-11-16T07:33:47.596Z,46.60
2022-11-16T07:36:18.615Z,47.50
2022-11-16T07:38:47.122Z,44.90
2022-11-16T07:41:19.981Z,42.80
2022-11-16T07:44:20.944Z,40.80
2022-11-16T07:47:01.872Z,42.40
2022-11-16T07:49:30.876Z,41.70
2022-11-16T07:52:03.816Z,42.30
2022-11-16T07:54:40.660Z,40.80
2022-11-16T07:57:09.341Z,41.70
2022-11-16T07:59:37.501Z,42.70
2022-11-16T08:02:06.082Z,41.20
2022-11-16T08:04:34.364Z,41.00
2022-11-16T08:07:02.578Z,42.00
2022-11-16T08:09:34.861Z,42.70
2022-11-16T08:12:03.322Z,41.60
2022-11-16T08:14:32.288Z,40.70
2022-11-16T08:17:00.369Z,42.10
2022-11-16T08:19:29.183Z,38.90
2022-11-16T08:21:57.660Z,39.80
2022-11-16T08:24:28.155Z,38.40
2022-11-16T08:26:58.755Z,38.30
2022-11-16T08:29:27.111Z,33.50
2022-11-16T08:31:55.564Z,36.30
2022-11-16T08:34:23.908Z,36.40
2022-11-16T08:36:54.111Z,36.90
2022-11-16T08:39:26.865Z,42.80
2022-11-16T08:41:55.100Z,33.10
2022-11-16T08:44:23.276Z,36.50
2022-11-16T08:46:53.822Z,35.90
2022-11-16T08:49:31.316Z,32.20
2022-11-16T08:51:59.692Z,31.10
2022-11-16T08:54:31.357Z,28.50
2022-11-16T08:56:59.562Z,27.90
2022-11-16T08:59:29.176Z,27.90
2022-11-16T09:02:00.794Z,25.20
2022-11-16T09:04:34.100Z,26.40
2022-11-16T09:07:05.011Z,23.40
2022-11-16T09:09:33.267Z,27.50
2022-11-16T09:12:01.407Z,26.20
2022-11-16T09:14:30.675Z,28.10
2022-11-16T09:16:58.798Z,28.90
2022-11-16T09:19:26.974Z,25.10
2022-11-16T09:21:55.728Z,25.10
2022-11-16T09:24:23.834Z,23.70
2022-11-16T09:26:51.961Z,24.10
2022-11-16T09:29:20.083Z,23.70
2022-11-16T09:31:48.306Z,23.20
2022-11-16T09:34:16.423Z,24.20
2022-11-16T09:36:44.610Z,25.60
2022-11-16T09:39:29.967Z,24.10
2022-11-16T09:42:21.993Z,28.50
2022-11-16T09:45:16.361Z,27.30
2022-11-16T09:47:50.192Z,23.20
2022-11-16T09:50:43.778Z,22.00
2022-11-16T09:53:25.892Z,21.30
2022-11-16T09:55:58.552Z,20.40
2022-11-16T09:58:39.880Z,22.10
2022-11-16T10:01:21.138Z,21.00
2022-11-16T10:03:53.988Z,21.80
2022-11-16T10:06:37.112Z,22.70
2022-11-16T10:09:05.651Z,21.20
2022-11-16T10:11:47.187Z,22.10
2022-11-16T10:14:41.789Z,20.60
2022-11-16T10:17:46.959Z,23.70
2022-11-16T10:20:31.121Z,22.30
2022-11-16T10:23:14.775Z,21.60
2022-11-16T10:25:45.164Z,24.40
2022-11-16T10:28:34.675Z,32.40
2022-11-16T10:31:21.135Z,26.90
2022-11-16T10:33:54.148Z,24.70
2022-11-16T10:36:27.486Z,22.10
2022-11-16T10:38:57.327Z,22.10
2022-11-16T10:41:31.417Z,21.50
2022-11-16T10:43:59.761Z,21.50
2022-11-16T10:46:42.176Z,24.00
2022-11-16T10:49:22.800Z,20.60
2022-11-16T10:51:51.046Z,25.30
2022-11-16T10:54:19.197Z,22.70
2022-11-16T10:56:49.702Z,23.40
2022-11-16T10:59:21.332Z,22.50
2022-11-16T11:01:53.208Z,23.80
2022-11-16T11:04:26.859Z,18.20
2022-11-16T11:06:58.189Z,20.70
2022-11-16T11:09:35.287Z,16.30
2022-11-16T11:12:32.605Z,15.50
2022-11-16T11:15:25.798Z,15.10
2022-11-16T11:18:23.788Z,15.60
2022-11-16T11:20:57.939Z,15.20
2022-11-16T11:23:27.597Z,15.40
2022-11-16T11:25:58.542Z,14.70
2022-11-16T11:28:30.060Z,13.90
2022-11-16T11:31:05.873Z,14.00
2022-11-16T11:33:38.278Z,16.00
2022-11-16T11:36:14.752Z,14.40
2022-11-16T11:39:13.155Z,14.10
2022-11-16T11:41:44.995Z,15.50
2022-11-16T11:44:13.024Z,15.40
2022-11-16T11:47:42.198Z,14.40
2022-11-16T11:49:50.093Z,13.50
2022-11-16T11:52:31.440Z,14.50
2022-11-16T11:55:02.715Z,14.50
2022-11-16T11:57:34.944Z,13.70
2022-11-16T12:00:05.930Z,12.20
2022-11-16T12:03:07.721Z,12.30
2022-11-16T12:06:30.887Z,12.50
2022-11-16T12:09:04.719Z,13.90
2022-11-16T12:11:41.718Z,14.00
2022-11-16T12:14:41.090Z,13.30
2022-11-16T12:17:37.019Z,13.10
2022-11-16T12:22:50.961Z,13.00
2022-11-16T12:25:37.376Z,12.40
2022-11-16T12:28:11.370Z,12.90
2022-11-16T12:31:02.274Z,12.90
2022-11-16T12:33:56.426Z,17.80
2022-11-16T12:36:44.536Z,16.50
2022-11-16T12:39:35.332Z,14.80
2022-11-16T12:42:40.826Z,13.90
2022-11-16T12:45:18.479Z,13.10
2022-11-16T12:47:52.343Z,13.90
2022-11-16T12:50:44.898Z,13.90
2022-11-16T12:53:26.604Z,17.80
2022-11-16T12:56:10.438Z,22.80
2022-11-16T12:58:57.140Z,27.20
2022-11-16T13:01:36.442Z,26.00
2022-11-16T13:04:15.556Z,20.90
2022-11-16T13:06:52.457Z,18.40
2022-11-16T13:09:26.149Z,14.80
2022-11-16T13:12:06.679Z,19.90
2022-11-16T13:14:40.802Z,18.20
2022-11-16T13:17:19.115Z,16.20
2022-11-16T13:20:15.101Z,16.30
2022-11-16T13:23:18.720Z,12.30
2022-11-16T13:25:56.608Z,12.00
2022-11-16T13:28:33.980Z,12.10
2022-11-16T13:31:10.748Z,11.10
2022-11-16T13:33:51.240Z,13.60
2022-11-16T13:36:31.774Z,14.70
2022-11-16T13:38:59.912Z,22.90
2022-11-16T13:41:31.767Z,18.60
2022-11-16T13:44:01.473Z,25.30
2022-11-16T13:46:56.261Z,21.30
2022-11-16T13:49:37.942Z,18.70
2022-11-16T13:52:23.295Z,13.40
2022-11-16T13:54:55.444Z,12.70
2022-11-16T13:57:26.188Z,11.70
2022-11-16T14:00:00.363Z,20.60
2022-11-16T14:02:37.324Z,15.60
2022-11-16T14:05:24.250Z,22.60
2022-11-16T14:07:52.351Z,12.20
2022-11-16T14:10:35.910Z,13.10
2022-11-16T14:13:06.317Z,11.60
2022-11-16T14:15:36.986Z,11.70
2022-11-16T14:18:08.662Z,11.70
2022-11-16T14:20:54.134Z,10.80
2022-11-16T14:26:02.504Z,10.10
2022-11-16T14:28:55.811Z,10.50
2022-11-16T14:31:47.212Z,10.80
2022-11-16T14:34:22.431Z,10.70
2022-11-16T14:36:51.555Z,10.50
2022-11-16T14:39:38.614Z,9.70
2022-11-16T14:42:19.779Z,9.80
2022-11-16T14:44:49.694Z,10.00
2022-11-16T14:47:23.603Z,9.60
2022-11-16T14:49:52.704Z,12.10
2022-11-16T14:52:26.469Z,12.60
2022-11-16T14:55:00.288Z,25.80
2022-11-16T14:57:28.686Z,22.40
2022-11-16T15:00:30.351Z,15.20
2022-11-16T15:03:02.614Z,16.40
2022-11-16T15:05:35.629Z,15.60
2022-11-16T15:08:16.354Z,13.20
2022-11-16T15:10:51.110Z,13.80
2022-11-16T15:13:24.105Z,14.20
2022-11-16T15:16:16.394Z,16.10
2022-11-16T15:19:01.934Z,16.00
2022-11-16T15:26:46.431Z,14.50
2022-11-16T15:29:19.910Z,10.70
2022-11-16T15:31:49.016Z,11.80
2022-11-16T15:34:19.652Z,11.40
2022-11-16T15:36:48.820Z,12.30
2022-11-16T15:39:20.091Z,11.60
2022-11-16T15:41:48.605Z,10.90
2022-11-16T15:44:20.415Z,10.30
2022-11-16T15:46:53.207Z,10.20
2022-11-16T15:49:35.903Z,11.10
2022-11-16T15:52:04.881Z,12.60
2022-11-16T15:54:55.509Z,13.00
2022-11-16T15:57:24.925Z,11.80
2022-11-16T15:59:55.537Z,11.80
2022-11-16T16:02:27.610Z,10.30
2022-11-16T16:04:56.105Z,10.80
2022-11-16T16:07:42.359Z,11.50
2022-11-16T16:10:22.055Z,8.80
2022-11-16T16:12:52.366Z,8.90
2022-11-16T16:15:36.786Z,9.50
2022-11-16T16:18:36.656Z,8.60
2022-11-16T16:21:04.808Z,9.70
2022-11-16T16:23:33.490Z,10.10
2022-11-16T16:26:04.616Z,10.60
2022-11-16T16:28:32.691Z,8.80
2022-11-16T16:31:00.888Z,9.10
2022-11-16T16:33:30.156Z,8.10
2022-11-16T16:35:58.241Z,8.50
2022-11-16T16:38:26.509Z,8.60
2022-11-16T16:41:02.709Z,11.30
2022-11-16T16:43:31.566Z,10.00
2022-11-16T16:46:02.070Z,10.40
2022-11-16T16:48:30.726Z,8.50
2022-11-16T16:50:58.874Z,6.90
2022-11-16T16:53:27.033Z,6.60
2022-11-16T16:55:55.352Z,8.00
2022-11-16T16:58:23.467Z,7.90
2022-11-16T17:00:53.706Z,7.40
2022-11-16T17:03:25.208Z,6.50
2022-11-16T17:05:59.615Z,8.90
2022-11-16T17:08:32.640Z,10.60
2022-11-16T17:11:01.494Z,13.00
2022-11-16T17:13:29.976Z,11.10
2022-11-16T17:15:58.086Z,10.00
2022-11-16T17:18:26.806Z,9.60
2022-11-16T17:20:54.990Z,9.40
2022-11-16T17:23:23.166Z,8.90
2022-11-16T17:25:51.297Z,9.80
2022-11-16T17:28:19.563Z,8.10
2022-11-16T17:30:47.734Z,8.80
2022-11-16T17:33:15.917Z,7.40
2022-11-16T17:35:44.112Z,6.60
2022-11-16T17:38:13.144Z,6.90
2022-11-16T17:40:41.290Z,7.00
2022-11-16T17:43:09.490Z,7.60
2022-11-16T17:45:37.532Z,9.40
2022-11-16T17:48:05.832Z,7.10
2022-11-16T17:50:34.048Z,7.00
2022-11-16T17:53:02.242Z,7.80
2022-11-16T17:55:30.459Z,10.90
2022-11-16T17:57:59.476Z,6.80
2022-11-16T18:00:32.490Z,8.30
2022-11-16T18:03:01.487Z,8.00
2022-11-16T18:05:30.420Z,7.60
2022-11-16T18:07:59.904Z,8.60
2022-11-16T18:10:28.123Z,14.00
2022-11-16T18:12:56.243Z,9.00
2022-11-16T18:15:28.873Z,7.40
2022-11-16T18:17:57.455Z,7.70
2022-11-16T18:20:27.666Z,7.90
2022-11-16T18:22:58.931Z,7.30
2022-11-16T18:25:42.098Z,7.20
2022-11-16T18:28:13.915Z,8.10
2022-11-16T18:30:51.647Z,7.70
2022-11-16T18:33:27.770Z,6.90
2022-11-16T18:35:58.599Z,7.60
2022-11-16T18:38:26.823Z,7.10
2022-11-16T18:41:04.896Z,7.20
2022-11-16T18:43:34.684Z,8.20
2022-11-16T18:46:03.266Z,6.70
2022-11-16T18:48:31.819Z,6.90
2022-11-16T18:51:01.176Z,6.00
2022-11-16T18:53:32.588Z,6.50
2022-11-16T18:56:01.228Z,8.80
2022-11-16T18:58:49.699Z,6.30
2022-11-16T19:01:22.780Z,6.50
2022-11-16T19:03:52.225Z,7.60
2022-11-16T19:06:21.737Z,6.50
2022-11-16T19:08:59.862Z,5.70
2022-11-16T19:11:28.841Z,6.50
2022-11-16T19:14:03.870Z,5.40
2022-11-16T19:19:01.520Z,5.10
2022-11-16T19:21:29.963Z,5.10
2022-11-16T19:23:58.690Z,5.00
2022-11-16T19:26:27.976Z,5.50
2022-11-16T19:28:56.159Z,4.50
2022-11-16T19:31:29.344Z,4.00
2022-11-16T19:34:04.388Z,5.80
2022-11-16T19:39:03.439Z,4.50
2022-11-16T19:41:31.919Z,4.50
2022-11-16T19:44:02.032Z,4.30
2022-11-16T19:46:33.784Z,5.50
2022-11-16T19:49:02.533Z,5.00
2022-11-16T19:51:32.622Z,5.20
2022-11-16T19:54:02.338Z,5.30
2022-11-16T19:56:30.754Z,5.10
2022-11-16T19:59:00.503Z,5.80
2022-11-16T20:01:29.770Z,6.50
2022-11-16T20:04:00.710Z,5.30
2022-11-16T20:06:37.888Z,5.20
2022-11-16T20:09:11.269Z,5.60
2022-11-16T20:11:41.285Z,5.60
2022-11-16T20:14:11.653Z,7.90
2022-11-16T20:16:41.427Z,5.30
2022-11-16T20:19:11.373Z,4.70
2022-11-16T20:21:44.345Z,6.90
2022-11-16T20:24:15.541Z,6.00
2022-11-16T20:26:46.459Z,6.40
2022-11-16T20:29:19.480Z,6.40
2022-11-16T20:31:48.987Z,4.90
2022-11-16T20:34:18.515Z,5.00
2022-11-16T20:36:51.206Z,4.60
2022-11-16T20:39:23.272Z,4.70
2022-11-16T20:41:51.868Z,5.60
2022-11-16T20:44:22.507Z,3.60
2022-11-16T20:46:52.664Z,3.90
2022-11-16T20:49:21.442Z,4.60
2022-11-16T20:51:51.865Z,4.50
2022-11-16T20:54:21.617Z,4.00
2022-11-16T20:56:51.284Z,4.70
2022-11-16T20:59:21.863Z,4.20
2022-11-16T21:01:53.298Z,4.10
2022-11-16T21:04:21.816Z,4.50
2022-11-16T21:06:50.492Z,4.20
2022-11-16T21:09:23.616Z,3.80
2022-11-16T21:12:10.587Z,3.80
2022-11-16T21:14:40.228Z,3.30
2022-11-16T21:17:09.285Z,3.10
2022-11-16T21:19:37.472Z,3.20
2022-11-16T21:22:05.563Z,2.70
2022-11-16T21:24:34.786Z,3.50
2022-11-16T21:27:02.892Z,3.80
2022-11-16T21:29:31.105Z,3.30
2022-11-16T21:31:59.435Z,3.70
2022-11-16T21:34:28.675Z,3.80
2022-11-16T21:36:56.943Z,3.30
2022-11-16T21:39:27.676Z,3.80
2022-11-16T21:41:57.324Z,3.30
2022-11-16T21:44:25.523Z,3.20
2022-11-16T21:46:54.385Z,3.60
2022-11-16T21:49:22.469Z,3.20
2022-11-16T21:51:50.640Z,3.50
2022-11-16T21:54:18.864Z,3.50
2022-11-16T21:56:46.967Z,3.30
2022-11-16T21:59:15.298Z,3.30
2022-11-16T22:02:09.508Z,3.80
2022-11-16T22:04:56.483Z,3.50
2022-11-16T22:07:33.490Z,4.00
2022-11-16T22:10:03.695Z,3.90
2022-11-16T22:12:32.275Z,4.80
2022-11-16T22:15:01.028Z,3.60
2022-11-16T22:17:36.843Z,4.00
2022-11-16T22:20:05.515Z,4.30
2022-11-16T22:22:33.752Z,4.80
2022-11-16T22:25:02.299Z,4.00
2022-11-16T22:27:30.682Z,4.20
2022-11-16T22:29:58.854Z,3.30
2022-11-16T22:32:26.965Z,3.90
2022-11-16T22:34:55.142Z,3.20
2022-11-16T22:37:23.269Z,2.70
2022-11-16T22:39:51.375Z,4.00
2022-11-16T22:42:19.479Z,3.00
2022-11-16T22:44:47.620Z,2.70
2022-11-16T22:47:15.774Z,2.70
2022-11-16T22:49:43.966Z,3.00
2022-11-16T22:52:12.178Z,2.70
2022-11-16T22:54:40.444Z,2.60
2022-11-16T22:57:08.569Z,3.10
2022-11-16T22:59:36.817Z,2.50
2022-11-16T23:02:05.827Z,2.50
2022-11-16T23:04:34.065Z,2.40
2022-11-16T23:07:02.290Z,2.70
2022-11-16T23:09:32.096Z,3.60
2022-11-16T23:12:18.977Z,2.50
2022-11-16T23:15:05.561Z,2.40
2022-11-16T23:17:33.747Z,2.30
2022-11-16T23:20:20.593Z,3.20
2022-11-16T23:23:07.439Z,2.20
2022-11-16T23:25:54.375Z,2.20
2022-11-16T23:28:22.637Z,2.80
2022-11-16T23:30:50.728Z,2.80
2022-11-16T23:33:38.800Z,3.10
2022-11-16T23:36:07.409Z,2.30
2022-11-16T23:38:35.526Z,2.20
2022-11-16T23:41:23.788Z,2.40
2022-11-16T23:43:58.399Z,2.10
2022-11-16T23:46:31.649Z,2.50
2022-11-16T23:49:00.932Z,2.30
2022-11-16T23:51:29.314Z,2.40
2022-11-16T23:53:57.894Z,1.90
2022-11-16T23:56:27.705Z,1.80
2022-11-16T23:58:59.507Z,1.90
